createdAt,value
2018-12-01T00:00:27.295Z,100493
2018-12-01T00:02:56.155Z,100487
2018-12-01T00:05:24.999Z,100490
2018-12-01T00:07:54.450Z,100486
2018-12-01T00:10:23.286Z,100490
2018-12-01T00:12:52.159Z,100481
2018-12-01T00:15:21.006Z,100486
2018-12-01T00:17:49.935Z,100485
2018-12-01T00:20:18.743Z,100485
2018-12-01T00:22:47.591Z,100489
2018-12-01T00:25:16.431Z,100484
2018-12-01T00:27:45.298Z,100490
2018-12-01T00:30:14.102Z,100479
2018-12-01T00:32:42.932Z,100491
2018-12-01T00:35:11.777Z,100483
2018-12-01T00:37:40.608Z,100491
2018-12-01T00:40:10.243Z,100485
2018-12-01T00:42:39.039Z,100481
2018-12-01T00:45:07.885Z,100493
2018-12-01T00:47:36.722Z,100491
2018-12-01T00:50:05.561Z,100496
2018-12-01T00:52:35.175Z,100501
2018-12-01T00:55:03.997Z,100503
2018-12-01T00:57:32.838Z,100512
2018-12-01T01:00:01.677Z,100521
2018-12-01T01:02:30.524Z,100512
2018-12-01T01:04:59.371Z,100509
2018-12-01T01:07:28.206Z,100511
2018-12-01T01:09:57.054Z,100509
2018-12-01T01:12:25.934Z,100519
2018-12-01T01:14:54.752Z,100517
2018-12-01T01:17:23.634Z,100519
2018-12-01T01:19:52.455Z,100515
2018-12-01T01:22:22.050Z,100515
2018-12-01T01:24:51.637Z,100513
2018-12-01T01:27:21.064Z,100520
2018-12-01T01:29:49.895Z,100515
2018-12-01T01:32:18.733Z,100526
2018-12-01T01:34:47.594Z,100533
2018-12-01T01:37:16.458Z,100540
2018-12-01T01:39:45.297Z,100536
2018-12-01T01:42:14.139Z,100536
2018-12-01T01:44:42.980Z,100537
2018-12-01T01:47:12.570Z,100534
2018-12-01T01:49:41.415Z,100534
2018-12-01T01:52:10.269Z,100536
2018-12-01T01:54:39.857Z,100531
2018-12-01T01:57:08.676Z,100531
2018-12-01T01:59:37.515Z,100534
2018-12-01T02:02:06.359Z,100533
2018-12-01T02:04:35.190Z,100530
2018-12-01T02:07:04.025Z,100530
2018-12-01T02:09:33.592Z,100528
2018-12-01T02:12:02.425Z,100528
2018-12-01T02:14:31.265Z,100519
2018-12-01T02:17:00.112Z,100518
2018-12-01T02:19:28.954Z,100523
2018-12-01T02:21:57.792Z,100530
2018-12-01T02:24:26.626Z,100527
2018-12-01T02:26:55.481Z,100529
2018-12-01T02:29:24.321Z,100525
2018-12-01T02:31:53.167Z,100530
2018-12-01T02:34:22.027Z,100531
2018-12-01T02:36:51.603Z,100526
2018-12-01T02:39:20.452Z,100512
2018-12-01T02:41:49.289Z,100511
2018-12-01T02:47:05.026Z,100502
2018-12-01T02:49:34.602Z,100508
2018-12-01T02:52:03.440Z,100510
2018-12-01T02:54:32.282Z,100519
2018-12-01T02:57:01.130Z,100514
2018-12-01T02:59:29.959Z,100511
2018-12-01T03:01:59.532Z,100507
2018-12-01T03:04:28.367Z,100498
2018-12-01T03:06:57.212Z,100495
2018-12-01T03:09:26.047Z,100497
2018-12-01T03:11:54.898Z,100499
2018-12-01T03:14:23.733Z,100496
2018-12-01T03:16:52.572Z,100490
2018-12-01T03:19:21.410Z,100495
2018-12-01T03:21:50.247Z,100485
2018-12-01T03:24:19.081Z,100497
2018-12-01T03:26:47.918Z,100494
2018-12-01T03:29:16.767Z,100494
2018-12-01T03:31:45.611Z,100497
2018-12-01T03:34:14.433Z,100502
2018-12-01T03:36:44.018Z,100500
2018-12-01T03:39:13.605Z,100498
2018-12-01T03:41:42.437Z,100498
2018-12-01T03:44:11.279Z,100495
2018-12-01T03:46:40.122Z,100505
2018-12-01T03:49:08.985Z,100506
2018-12-01T03:51:37.827Z,100501
2018-12-01T03:54:06.666Z,100507
2018-12-01T03:56:36.242Z,100501
2018-12-01T03:59:05.091Z,100499
2018-12-01T04:01:33.921Z,100511
2018-12-01T04:04:02.785Z,100510
2018-12-01T04:06:31.615Z,100517
2018-12-01T04:09:00.461Z,100522
2018-12-01T04:11:29.304Z,100525
2018-12-01T04:13:58.140Z,100532
2018-12-01T04:16:26.974Z,100528
2018-12-01T04:18:55.838Z,100529
2018-12-01T04:21:24.671Z,100526
2018-12-01T04:23:53.506Z,100537
2018-12-01T04:26:22.395Z,100532
2018-12-01T04:28:51.939Z,100528
2018-12-01T04:31:20.799Z,100522
2018-12-01T04:33:49.647Z,100528
2018-12-01T04:36:18.478Z,100539
2018-12-01T04:38:47.313Z,100531
2018-12-01T04:41:16.167Z,100526
2018-12-01T04:43:44.993Z,100519
2018-12-01T04:46:14.581Z,100543
2018-12-01T04:48:43.444Z,100536
2018-12-01T04:51:12.288Z,100538
2018-12-01T04:53:41.132Z,100540
2018-12-01T04:56:09.972Z,100534
2018-12-01T04:58:38.827Z,100532
2018-12-01T05:01:07.687Z,100534
2018-12-01T05:03:36.570Z,100542
2018-12-01T05:06:05.396Z,100537
2018-12-01T05:08:35.006Z,100543
2018-12-01T05:11:03.820Z,100544
2018-12-01T05:13:32.677Z,100550
2018-12-01T05:16:01.529Z,100547
2018-12-01T05:18:30.390Z,100551
2018-12-01T05:20:59.952Z,100553
2018-12-01T05:23:28.780Z,100545
2018-12-01T05:25:57.630Z,100545
2018-12-01T05:28:26.472Z,100545
2018-12-01T05:30:55.341Z,100549
2018-12-01T05:33:24.915Z,100551
2018-12-01T05:35:53.747Z,100558
2018-12-01T05:38:22.589Z,100558
2018-12-01T05:40:51.434Z,100558
2018-12-01T05:43:20.288Z,100556
2018-12-01T05:45:49.861Z,100555
2018-12-01T05:48:18.699Z,100571
2018-12-01T05:50:48.288Z,100576
2018-12-01T05:53:17.128Z,100572
2018-12-01T05:55:45.973Z,100580
2018-12-01T05:58:15.556Z,100586
2018-12-01T06:00:44.390Z,100583
2018-12-01T06:03:13.233Z,100590
2018-12-01T06:05:42.075Z,100581
2018-12-01T06:08:10.919Z,100586
2018-12-01T06:10:39.774Z,100594
2018-12-01T06:13:08.616Z,100596
2018-12-01T06:15:38.201Z,100601
2018-12-01T06:18:07.044Z,100606
2018-12-01T06:20:35.883Z,100603
2018-12-01T06:23:04.734Z,100602
2018-12-01T06:25:33.576Z,100610
2018-12-01T06:28:03.159Z,100612
2018-12-01T06:30:31.992Z,100604
2018-12-01T06:33:00.829Z,100604
2018-12-01T06:35:29.726Z,100599
2018-12-01T06:37:58.554Z,100611
2018-12-01T06:40:27.390Z,100612
2018-12-01T06:42:56.222Z,100615
2018-12-01T06:45:25.807Z,100608
2018-12-01T06:47:54.642Z,100605
2018-12-01T06:50:23.487Z,100602
2018-12-01T06:52:52.334Z,100600
2018-12-01T06:55:21.165Z,100596
2018-12-01T06:57:50.021Z,100592
2018-12-01T07:00:18.864Z,100594
2018-12-01T07:02:48.503Z,100595
2018-12-01T07:05:17.305Z,100601
2018-12-01T07:07:46.158Z,100610
2018-12-01T07:10:14.998Z,100605
2018-12-01T07:12:43.818Z,100608
2018-12-01T07:15:13.411Z,100607
2018-12-01T07:17:42.245Z,100605
2018-12-01T07:20:11.086Z,100592
2018-12-01T07:22:40.707Z,100594
2018-12-01T07:25:09.543Z,100600
2018-12-01T07:27:38.385Z,100606
2018-12-01T07:30:07.987Z,100605
2018-12-01T07:32:36.830Z,100603
2018-12-01T07:35:05.677Z,100595
2018-12-01T07:37:35.252Z,100606
2018-12-01T07:40:04.085Z,100608
2018-12-01T07:42:32.932Z,100601
2018-12-01T07:45:01.795Z,100603
2018-12-01T07:47:30.623Z,100607
2018-12-01T07:49:59.472Z,100610
2018-12-01T07:52:28.319Z,100605
2018-12-01T07:54:57.888Z,100601
2018-12-01T07:57:26.721Z,100612
2018-12-01T07:59:55.576Z,100606
2018-12-01T08:02:24.406Z,100606
2018-12-01T08:04:53.241Z,100616
2018-12-01T08:07:22.077Z,100613
2018-12-01T08:09:50.918Z,100606
2018-12-01T08:12:19.753Z,100607
2018-12-01T08:14:48.712Z,100611
2018-12-01T08:17:17.552Z,100600
2018-12-01T08:19:46.395Z,100597
2018-12-01T08:22:15.242Z,100593
2018-12-01T08:24:44.077Z,100577
2018-12-01T08:27:12.937Z,100580
2018-12-01T08:29:41.781Z,100580
2018-12-01T08:32:10.620Z,100580
2018-12-01T08:34:39.467Z,100574
2018-12-01T08:37:08.319Z,100578
2018-12-01T08:39:37.165Z,100579
2018-12-01T08:42:06.011Z,100578
2018-12-01T08:44:34.862Z,100578
2018-12-01T08:47:03.705Z,100576
2018-12-01T08:49:32.547Z,100586
2018-12-01T08:52:01.393Z,100581
2018-12-01T08:54:30.242Z,100578
2018-12-01T08:56:59.086Z,100577
2018-12-01T08:59:27.927Z,100582
2018-12-01T09:01:57.536Z,100576
2018-12-01T09:04:26.387Z,100576
2018-12-01T09:06:55.223Z,100578
2018-12-01T09:09:24.813Z,100589
2018-12-01T09:11:53.655Z,100582
2018-12-01T09:14:22.497Z,100583
2018-12-01T09:16:51.452Z,100579
2018-12-01T09:19:20.283Z,100578
2018-12-01T09:21:49.868Z,100588
2018-12-01T09:24:19.303Z,100594
2018-12-01T09:26:48.150Z,100596
2018-12-01T09:29:16.979Z,100596
2018-12-01T09:31:46.558Z,100587
2018-12-01T09:34:15.416Z,100597
2018-12-01T09:36:44.262Z,100599
2018-12-01T09:39:13.100Z,100605
2018-12-01T09:41:41.946Z,100609
2018-12-01T09:44:10.785Z,100610
2018-12-01T09:46:39.615Z,100608
2018-12-01T09:49:08.445Z,100609
2018-12-01T09:51:37.288Z,100607
2018-12-01T09:54:06.867Z,100600
2018-12-01T09:56:35.698Z,100600
2018-12-01T09:59:05.290Z,100610
2018-12-01T10:01:34.863Z,100611
2018-12-01T10:04:03.707Z,100617
2018-12-01T10:06:32.546Z,100617
2018-12-01T10:09:01.407Z,100609
2018-12-01T10:11:30.254Z,100593
2018-12-01T10:13:59.836Z,100590
2018-12-01T10:16:28.657Z,100586
2018-12-01T10:18:57.499Z,100578
2018-12-01T10:21:26.328Z,100569
2018-12-01T10:23:55.910Z,100572
2018-12-01T10:26:24.769Z,100572
2018-12-01T10:28:53.616Z,100573
2018-12-01T10:31:23.244Z,100564
2018-12-01T10:33:52.104Z,100561
2018-12-01T10:36:21.709Z,100556
2018-12-01T10:38:51.302Z,100553
2018-12-01T10:41:20.143Z,100547
2018-12-01T10:43:48.993Z,100544
2018-12-01T10:46:18.566Z,100538
2018-12-01T10:48:47.438Z,100540
2018-12-01T10:51:16.323Z,100535
2018-12-01T10:53:45.149Z,100537
2018-12-01T10:56:13.979Z,100542
2018-12-01T10:58:42.822Z,100530
2018-12-01T11:01:12.668Z,100529
2018-12-01T11:03:41.508Z,100534
2018-12-01T11:06:10.360Z,100526
2018-12-01T11:08:39.197Z,100530
2018-12-01T11:11:08.045Z,100536
2018-12-01T11:13:36.887Z,100545
2018-12-01T11:16:05.729Z,100551
2018-12-01T11:18:34.578Z,100541
2018-12-01T11:21:04.266Z,100549
2018-12-01T11:23:33.119Z,100541
2018-12-01T11:26:01.955Z,100541
2018-12-01T11:28:31.382Z,100536
2018-12-01T11:31:00.215Z,100536
2018-12-01T11:33:29.064Z,100540
2018-12-01T11:35:58.643Z,100528
2018-12-01T11:38:27.474Z,100528
2018-12-01T11:40:56.313Z,100519
2018-12-01T11:43:25.150Z,100531
2018-12-01T11:45:54.002Z,100527
2018-12-01T11:48:22.847Z,100514
2018-12-01T11:50:51.678Z,100512
2018-12-01T11:53:20.530Z,100514
2018-12-01T11:55:49.370Z,100505
2018-12-01T11:58:18.945Z,100514
2018-12-01T12:00:47.816Z,100507
2018-12-01T12:03:16.643Z,100506
2018-12-01T12:05:45.516Z,100516
2018-12-01T12:08:14.316Z,100505
2018-12-01T12:10:43.193Z,100515
2018-12-01T12:13:12.003Z,100496
2018-12-01T12:15:40.853Z,100496
2018-12-01T12:18:09.697Z,100484
2018-12-01T12:20:38.626Z,100484
2018-12-01T12:23:07.379Z,100477
2018-12-01T12:25:37.237Z,100477
2018-12-01T12:28:05.991Z,100476
2018-12-01T12:30:34.827Z,100474
2018-12-01T12:33:03.661Z,100469
2018-12-01T12:35:32.494Z,100466
2018-12-01T12:38:01.319Z,100464
2018-12-01T12:40:30.145Z,100459
2018-12-01T12:42:58.980Z,100464
2018-12-01T12:45:27.829Z,100480
2018-12-01T12:47:56.674Z,100469
2018-12-01T12:50:26.267Z,100463
2018-12-01T12:52:55.129Z,100453
2018-12-01T12:55:23.977Z,100453
2018-12-01T12:57:52.831Z,100460
2018-12-01T13:00:21.663Z,100458
2018-12-01T13:02:50.546Z,100450
2018-12-01T13:05:19.379Z,100458
2018-12-01T13:07:48.207Z,100452
2018-12-01T13:10:17.780Z,100447
2018-12-01T13:12:46.622Z,100439
2018-12-01T13:15:15.464Z,100447
2018-12-01T13:17:44.287Z,100454
2018-12-01T13:20:13.116Z,100460
2018-12-01T13:22:41.941Z,100455
2018-12-01T13:25:10.763Z,100448
2018-12-01T13:27:39.629Z,100441
2018-12-01T13:30:08.437Z,100433
2018-12-01T13:32:37.266Z,100430
2018-12-01T13:35:06.120Z,100421
2018-12-01T13:37:34.960Z,100423
2018-12-01T13:40:03.785Z,100420
2018-12-01T13:42:33.374Z,100418
2018-12-01T13:45:02.348Z,100436
2018-12-01T13:47:31.188Z,100426
2018-12-01T13:50:00.047Z,100424
2018-12-01T13:52:29.478Z,100415
2018-12-01T13:54:58.316Z,100421
2018-12-01T13:57:27.154Z,100416
2018-12-01T13:59:56.138Z,100408
2018-12-01T14:02:24.935Z,100416
2018-12-01T14:04:53.768Z,100414
2018-12-01T14:07:24.134Z,100415
2018-12-01T14:09:52.982Z,100417
2018-12-01T14:12:21.808Z,100409
2018-12-01T14:14:50.918Z,100410
2018-12-01T14:17:20.502Z,100410
2018-12-01T14:19:49.348Z,100396
2018-12-01T14:22:18.202Z,100403
2018-12-01T14:24:47.781Z,100410
2018-12-01T14:27:16.611Z,100409
2018-12-01T14:29:45.433Z,100408
2018-12-01T14:32:14.256Z,100398
2018-12-01T14:34:43.146Z,100398
2018-12-01T14:37:11.957Z,100392
2018-12-01T14:39:40.796Z,100383
2018-12-01T14:42:09.630Z,100385
2018-12-01T14:44:39.205Z,100387
2018-12-01T14:47:08.056Z,100388
2018-12-01T14:49:36.907Z,100393
2018-12-01T14:52:06.482Z,100390
2018-12-01T14:54:35.326Z,100399
2018-12-01T14:57:04.160Z,100387
2018-12-01T14:59:32.995Z,100395
2018-12-01T15:02:01.843Z,100397
2018-12-01T15:04:30.679Z,100396
2018-12-01T15:06:59.519Z,100392
2018-12-01T15:09:28.345Z,100390
2018-12-01T15:11:57.932Z,100388
2018-12-01T15:14:26.825Z,100387
2018-12-01T15:16:55.613Z,100380
2018-12-01T15:19:25.181Z,100382
2018-12-01T15:21:54.026Z,100383
2018-12-01T15:24:22.866Z,100385
2018-12-01T15:26:51.722Z,100380
2018-12-01T15:29:20.629Z,100378
2018-12-01T15:31:49.482Z,100384
2018-12-01T15:34:19.060Z,100377
2018-12-01T15:36:47.916Z,100368
2018-12-01T15:39:16.755Z,100369
2018-12-01T15:41:45.607Z,100367
2018-12-01T15:44:14.477Z,100364
2018-12-01T15:46:43.303Z,100364
2018-12-01T15:49:12.171Z,100362
2018-12-01T15:51:40.993Z,100357
2018-12-01T15:54:09.831Z,100346
2018-12-01T15:56:38.663Z,100352
2018-12-01T15:59:08.237Z,100346
2018-12-01T16:01:37.082Z,100349
2018-12-01T16:04:06.643Z,100347
2018-12-01T16:06:35.468Z,100340
2018-12-01T16:09:04.323Z,100347
2018-12-01T16:11:33.152Z,100348
2018-12-01T16:14:02.739Z,100340
2018-12-01T16:16:32.315Z,100341
2018-12-01T16:19:01.158Z,100344
2018-12-01T16:21:29.993Z,100341
2018-12-01T16:23:58.828Z,100344
2018-12-01T16:26:28.422Z,100341
2018-12-01T16:28:58.003Z,100339
2018-12-01T16:31:26.827Z,100342
2018-12-01T16:33:55.675Z,100335
2018-12-01T16:36:24.540Z,100322
2018-12-01T16:38:53.393Z,100334
2018-12-01T16:41:22.974Z,100331
2018-12-01T16:43:51.927Z,100320
2018-12-01T16:46:20.721Z,100323
2018-12-01T16:48:49.558Z,100313
2018-12-01T16:51:20.690Z,100307
2018-12-01T16:53:48.684Z,100306
2018-12-01T16:56:17.498Z,100309
2018-12-01T16:58:46.332Z,100303
2018-12-01T17:01:15.167Z,100311
2018-12-01T17:03:44.004Z,100305
2018-12-01T17:06:12.854Z,100296
2018-12-01T17:08:41.686Z,100290
2018-12-01T17:11:10.530Z,100303
2018-12-01T17:20:09.662Z,100299
2018-12-01T17:22:38.509Z,100293
2018-12-01T17:25:07.371Z,100295
2018-12-01T17:27:36.215Z,100291
2018-12-01T17:30:05.058Z,100282
2018-12-01T17:32:33.910Z,100285
2018-12-01T17:35:02.740Z,100281
2018-12-01T17:37:32.434Z,100281
2018-12-01T17:40:01.264Z,100294
2018-12-01T17:42:30.118Z,100273
2018-12-01T17:44:58.964Z,100271
2018-12-01T17:47:27.830Z,100273
2018-12-01T17:49:56.673Z,100270
2018-12-01T17:52:25.528Z,100267
2018-12-01T17:54:54.375Z,100263
2018-12-01T17:57:23.949Z,100262
2018-12-01T17:59:52.791Z,100256
2018-12-01T18:02:21.636Z,100257
2018-12-01T18:04:51.048Z,100256
2018-12-01T18:07:20.762Z,100255
2018-12-01T18:09:49.616Z,100265
2018-12-01T18:12:18.465Z,100260
2018-12-01T18:14:48.051Z,100263
2018-12-01T18:17:16.897Z,100265
2018-12-01T18:19:45.734Z,100265
2018-12-01T18:22:15.318Z,100267
2018-12-01T18:24:44.165Z,100272
2018-12-01T18:27:13.003Z,100260
2018-12-01T18:29:41.838Z,100253
2018-12-01T18:32:10.683Z,100252
2018-12-01T18:34:39.540Z,100251
2018-12-01T18:37:08.359Z,100250
2018-12-01T18:42:15.713Z,100248
2018-12-01T18:44:44.537Z,100254
2018-12-01T18:47:13.379Z,100250
2018-12-01T18:49:42.245Z,100251
2018-12-01T18:52:11.069Z,100242
2018-12-01T18:54:39.931Z,100234
2018-12-01T18:57:09.520Z,100235
2018-12-01T18:59:39.132Z,100233
2018-12-01T19:02:07.953Z,100214
2018-12-01T19:04:36.798Z,100212
2018-12-01T19:07:06.386Z,100223
2018-12-01T19:09:35.233Z,100221
2018-12-01T19:12:04.088Z,100227
2018-12-01T19:14:32.923Z,100224
2018-12-01T19:17:01.785Z,100212
2018-12-01T19:19:30.621Z,100203
2018-12-01T19:21:59.484Z,100201
2018-12-01T19:24:28.314Z,100191
2018-12-01T19:26:57.192Z,100188
2018-12-01T19:29:26.069Z,100190
2018-12-01T19:31:55.629Z,100185
2018-12-01T19:34:24.468Z,100195
2018-12-01T19:36:53.313Z,100188
2018-12-01T19:39:22.903Z,100189
2018-12-01T19:41:51.756Z,100188
2018-12-01T19:44:20.588Z,100193
2018-12-01T19:46:49.492Z,100189
2018-12-01T19:49:18.296Z,100190
2018-12-01T19:51:47.153Z,100182
2018-12-01T19:54:15.997Z,100171
2018-12-01T19:56:44.835Z,100165
2018-12-01T19:59:14.452Z,100168
2018-12-01T20:01:44.042Z,100172
2018-12-01T20:04:12.898Z,100169
2018-12-01T20:06:41.810Z,100167
2018-12-01T20:09:10.708Z,100159
2018-12-01T20:11:39.560Z,100150
2018-12-01T20:14:08.428Z,100152
2018-12-01T20:16:37.336Z,100150
2018-12-01T20:19:06.967Z,100154
2018-12-01T20:21:35.825Z,100146
2018-12-01T20:24:04.681Z,100142
2018-12-01T20:26:33.548Z,100137
2018-12-01T20:29:02.364Z,100145
2018-12-01T20:31:31.216Z,100153
2018-12-01T20:34:00.064Z,100146
2018-12-01T20:36:28.911Z,100143
2018-12-01T20:38:57.747Z,100137
2018-12-01T20:43:47.479Z,100130
2018-12-01T20:46:16.280Z,100120
2018-12-01T20:48:45.272Z,100114
2018-12-01T20:51:14.004Z,100116
2018-12-01T20:53:42.845Z,100119
2018-12-01T20:56:11.704Z,100112
2018-12-01T20:58:40.564Z,100107
2018-12-01T21:01:09.419Z,100104
2018-12-01T21:03:38.239Z,100101
2018-12-01T21:06:07.130Z,100094
2018-12-01T21:08:35.966Z,100095
2018-12-01T21:11:04.807Z,100094
2018-12-01T21:13:33.662Z,100087
2018-12-01T21:16:03.090Z,100086
2018-12-01T21:18:31.966Z,100090
2018-12-01T21:21:01.565Z,100092
2018-12-01T21:23:30.411Z,100080
2018-12-01T21:25:59.238Z,100084
2018-12-01T21:28:28.716Z,100078
2018-12-01T21:30:57.547Z,100068
2018-12-01T21:33:27.142Z,100075
2018-12-01T21:35:56.736Z,100074
2018-12-01T21:38:25.575Z,100069
2018-12-01T21:40:54.424Z,100069
2018-12-01T21:43:23.272Z,100061
2018-12-01T21:45:52.115Z,100060
2018-12-01T21:48:21.029Z,100061
2018-12-01T21:50:49.846Z,100049
2018-12-01T21:53:18.681Z,100047
2018-12-01T21:55:48.248Z,100045
2018-12-01T21:58:17.088Z,100033
2018-12-01T22:00:46.669Z,100030
2018-12-01T22:03:15.517Z,100025
2018-12-01T22:05:44.354Z,100021
2018-12-01T22:08:13.210Z,100023
2018-12-01T22:10:42.045Z,100027
2018-12-01T22:13:11.637Z,100013
2018-12-01T22:15:41.223Z,100016
2018-12-01T22:18:10.062Z,100018
2018-12-01T22:20:38.905Z,100012
2018-12-01T22:23:07.743Z,100013
2018-12-01T22:25:36.583Z,100016
2018-12-01T22:28:05.424Z,100009
2018-12-01T22:30:34.259Z,100012
2018-12-01T22:33:03.093Z,100006
2018-12-01T22:35:31.953Z,100009
2018-12-01T22:38:00.789Z,100008
2018-12-01T22:40:29.636Z,100007
2018-12-01T22:42:59.223Z,99999
2018-12-01T22:45:28.068Z,99998
2018-12-01T22:47:56.933Z,99996
2018-12-01T22:50:25.724Z,99994
2018-12-01T22:52:55.293Z,99990
2018-12-01T22:55:24.129Z,100000
2018-12-01T22:57:52.983Z,99986
2018-12-01T23:00:21.837Z,99982
2018-12-01T23:02:50.687Z,99980
2018-12-01T23:05:20.269Z,99976
2018-12-01T23:07:49.108Z,99969
2018-12-01T23:10:17.955Z,99965
2018-12-01T23:12:47.564Z,99962
2018-12-01T23:15:16.392Z,99961
2018-12-01T23:17:45.233Z,99960
2018-12-01T23:20:14.073Z,99949
2018-12-01T23:22:42.905Z,99951
2018-12-01T23:25:11.753Z,99955
2018-12-01T23:27:40.585Z,99950
2018-12-01T23:30:09.431Z,99942
2018-12-01T23:32:38.277Z,99943
2018-12-01T23:35:07.844Z,99942
2018-12-01T23:37:36.673Z,99946
2018-12-01T23:40:06.253Z,99938
2018-12-01T23:42:35.091Z,99941
2018-12-01T23:45:03.943Z,99939
2018-12-01T23:47:32.781Z,99941
2018-12-01T23:50:01.615Z,99932
2018-12-01T23:52:30.469Z,99932
2018-12-01T23:54:59.319Z,99931
2018-12-01T23:57:28.170Z,99926
2018-12-01T23:59:56.990Z,99919
